Time;durP1;ratioP1;P1;durP2;ratioP2;P2;SDS_P1;SDS_P2;PMS_P1;PMS_P2;Temp;Humidity;BMP_temperature;BMP_pressure;BME280_temperature;BME280_humidity;BME280_pressure;Samples;Min_cycle;Max_cycle;Signal;HPM_P1;HPM_P2
2022/10/11 00:02:05;;;;;;;5.50;4.07;;;12.30;99.90;;;;;;5094253;28;20464;-70
2022/10/11 00:04:32;;;;;;;5.80;3.07;;;12.20;99.90;;;;;;5108843;28;20978;-70
2022/10/11 00:06:58;;;;;;;5.30;3.23;;;12.10;99.90;;;;;;5103604;28;20455;-70
2022/10/11 00:09:25;;;;;;;4.83;3.50;;;12.10;99.90;;;;;;5110005;28;20538;-70
2022/10/11 00:11:56;;;;;;;7.40;3.00;;;12.00;99.90;;;;;;5112537;28;20496;-70
2022/10/11 00:14:23;;;;;;;9.07;3.63;;;12.00;99.90;;;;;;5107092;28;20448;-70
2022/10/11 00:16:50;;;;;;;8.30;3.30;;;12.00;99.90;;;;;;5102069;28;20507;-70
2022/10/11 00:19:17;;;;;;;4.17;2.93;;;11.90;99.90;;;;;;5113506;27;20449;-71
2022/10/11 00:21:43;;;;;;;4.33;3.20;;;12.00;99.90;;;;;;5108373;28;20465;-71
2022/10/11 00:24:11;;;;;;;4.90;3.07;;;11.90;99.90;;;;;;5098898;28;20454;-71
2022/10/11 00:26:38;;;;;;;6.13;3.00;;;11.90;99.90;;;;;;5105305;28;20510;-70
2022/10/11 00:29:06;;;;;;;5.43;2.63;;;11.90;99.90;;;;;;5092294;28;21025;-71
2022/10/11 00:31:33;;;;;;;10.43;3.47;;;11.90;99.90;;;;;;5101743;28;20871;-70
2022/10/11 00:34:00;;;;;;;4.50;3.10;;;11.80;99.90;;;;;;5099328;28;20820;-71
2022/10/11 00:36:27;;;;;;;8.30;2.90;;;11.80;99.90;;;;;;5092428;28;20464;-70
2022/10/11 00:38:54;;;;;;;6.27;3.33;;;11.80;99.90;;;;;;5091602;28;20499;-70
2022/10/11 00:41:21;;;;;;;10.10;3.33;;;11.80;99.90;;;;;;5099764;28;20526;-70
2022/10/11 00:43:47;;;;;;;5.37;2.70;;;11.80;99.90;;;;;;5112674;28;20451;-71
2022/10/11 00:46:29;;;;;;;4.77;2.20;;;11.80;99.90;;;;;;5108545;27;20447;-70
2022/10/11 00:49:01;;;;;;;9.67;2.80;;;11.80;99.90;;;;;;5091990;28;20915;-71
2022/10/11 00:51:46;;;;;;;7.63;2.70;;;11.80;99.90;;;;;;5099513;28;20474;-71
2022/10/11 00:54:16;;;;;;;7.33;2.70;;;11.80;99.90;;;;;;5092239;28;20450;-70
2022/10/11 00:56:48;;;;;;;8.40;2.50;;;11.80;99.90;;;;;;5093173;28;20457;-71
2022/10/11 00:59:19;;;;;;;15.80;3.27;;;11.80;99.90;;;;;;5098680;28;20535;-70
2022/10/11 01:01:47;;;;;;;8.87;2.93;;;11.80;99.90;;;;;;5100739;28;21016;-71
2022/10/11 01:04:13;;;;;;;5.37;2.47;;;11.70;99.90;;;;;;5092141;28;20478;-70
2022/10/11 01:06:41;;;;;;;9.60;3.03;;;11.70;99.90;;;;;;5098194;28;20454;-70
2022/10/11 01:09:08;;;;;;;11.47;2.77;;;11.70;99.90;;;;;;5110396;28;20484;-70
2022/10/11 01:11:37;;;;;;;6.23;2.33;;;11.70;99.90;;;;;;5103595;27;20472;-70
2022/10/11 01:14:24;;;;;;;9.53;3.13;;;11.60;99.90;;;;;;5097772;28;20521;-70
2022/10/11 01:17:00;;;;;;;9.50;3.07;;;11.50;99.90;;;;;;5103476;28;20455;-71
2022/10/11 01:19:44;;;;;;;7.63;4.30;;;11.50;99.90;;;;;;5091846;28;20443;-70
2022/10/11 01:22:25;;;;;;;19.43;2.90;;;11.40;99.90;;;;;;5105372;28;20473;-71
2022/10/11 01:25:09;;;;;;;10.00;2.73;;;11.40;99.90;;;;;;5109392;28;20461;-70
2022/10/11 01:27:55;;;;;;;8.63;3.07;;;11.30;99.90;;;;;;5105669;28;20453;-70
2022/10/11 01:30:25;;;;;;;14.90;2.90;;;11.30;99.90;;;;;;5111819;28;20489;-70
2022/10/11 01:33:06;;;;;;;8.73;2.70;;;11.30;99.90;;;;;;5091900;28;20463;-71
2022/10/11 01:35:41;;;;;;;14.87;4.63;;;11.20;99.90;;;;;;5105673;28;20840;-70
2022/10/11 01:38:13;;;;;;;9.50;2.83;;;11.20;99.90;;;;;;5111239;28;20453;-70
2022/10/11 01:40:45;;;;;;;10.93;3.10;;;11.20;99.90;;;;;;5100630;28;20459;-70
2022/10/11 01:43:13;;;;;;;9.33;2.87;;;11.20;99.90;;;;;;5110697;28;20484;-70
2022/10/11 01:45:42;;;;;;;11.37;2.80;;;11.10;99.90;;;;;;5111483;28;20447;-70
2022/10/11 01:48:11;;;;;;;7.27;2.50;;;11.10;99.90;;;;;;5093255;28;20448;-71
2022/10/11 01:50:44;;;;;;;12.67;3.30;;;11.00;99.90;;;;;;5095617;28;20578;-70
2022/10/11 01:53:28;;;;;;;18.03;2.80;;;10.90;99.90;;;;;;5115626;28;20461;-71
2022/10/11 01:55:59;;;;;;;12.33;2.90;;;10.80;99.90;;;;;;5115538;28;20453;-71
2022/10/11 01:58:36;;;;;;;12.27;2.83;;;10.70;99.90;;;;;;5095638;28;20508;-71
2022/10/11 02:01:15;;;;;;;8.93;3.00;;;10.50;99.90;;;;;;5098705;28;20877;-70
2022/10/11 02:03:47;;;;;;;8.93;2.77;;;10.50;99.90;;;;;;5115111;28;20446;-70
2022/10/11 02:06:22;;;;;;;10.63;3.10;;;10.40;99.90;;;;;;5113349;28;20435;-71
2022/10/11 02:08:55;;;;;;;10.90;3.20;;;10.30;99.90;;;;;;5095363;28;20486;-70
2022/10/11 02:11:25;;;;;;;6.60;2.40;;;10.30;99.90;;;;;;5104022;28;20526;-70
2022/10/11 02:13:57;;;;;;;6.97;2.57;;;10.20;99.90;;;;;;5095015;28;20863;-71
2022/10/11 02:16:30;;;;;;;7.23;2.70;;;10.20;99.90;;;;;;5098223;28;20454;-70
2022/10/11 02:18:57;;;;;;;7.50;2.60;;;10.10;99.90;;;;;;5112286;28;20446;-71
2022/10/11 02:21:25;;;;;;;14.60;2.50;;;10.00;99.90;;;;;;5103564;28;20474;-71
2022/10/11 02:23:56;;;;;;;4.33;2.53;;;10.00;99.90;;;;;;5115224;28;20450;-71
2022/10/11 02:26:24;;;;;;;11.07;2.53;;;9.90;99.90;;;;;;5111595;28;20455;-70
2022/10/11 02:28:54;;;;;;;15.70;3.27;;;9.80;99.90;;;;;;5094741;28;20563;-70
2022/10/11 02:31:22;;;;;;;6.23;2.47;;;9.70;99.90;;;;;;5102171;28;20489;-71
2022/10/11 02:33:58;;;;;;;5.00;2.60;;;9.70;99.90;;;;;;5103064;27;20457;-70
2022/10/11 02:36:31;;;;;;;10.10;3.27;;;9.60;99.90;;;;;;5095074;28;20472;-70
2022/10/11 02:39:04;;;;;;;7.60;2.70;;;9.60;99.90;;;;;;5094854;28;20450;-70
2022/10/11 02:41:36;;;;;;;17.30;3.43;;;9.50;99.90;;;;;;5103714;28;20868;-71
2022/10/11 02:44:07;;;;;;;14.70;3.17;;;9.50;99.90;;;;;;5114518;28;20458;-71
2022/10/11 02:46:35;;;;;;;12.67;3.00;;;9.40;99.90;;;;;;5101651;28;20450;-70
2022/10/11 02:49:03;;;;;;;13.23;2.50;;;9.30;99.90;;;;;;5114968;28;20530;-70
2022/10/11 02:51:31;;;;;;;10.50;2.93;;;9.30;99.90;;;;;;5112632;28;20466;-70
2022/10/11 02:53:58;;;;;;;10.90;2.93;;;9.20;99.90;;;;;;5114175;28;20563;-70
2022/10/11 02:56:24;;;;;;;8.60;3.00;;;9.20;99.90;;;;;;5109401;28;20467;-70
2022/10/11 02:58:51;;;;;;;17.37;3.10;;;9.20;99.90;;;;;;5094556;28;20500;-70
2022/10/11 03:01:18;;;;;;;10.60;3.60;;;9.10;99.90;;;;;;5100229;28;20841;-70
2022/10/11 03:03:44;;;;;;;10.40;3.13;;;9.10;99.90;;;;;;5114320;28;20461;-70
2022/10/11 03:06:12;;;;;;;6.87;2.33;;;9.00;99.90;;;;;;5112460;28;20532;-70
2022/10/11 03:08:39;;;;;;;6.80;2.37;;;8.90;99.90;;;;;;5094036;28;20447;-70
2022/10/11 03:11:06;;;;;;;9.70;2.67;;;8.90;99.90;;;;;;5099083;28;20535;-70
2022/10/11 03:13:33;;;;;;;5.17;3.27;;;8.80;99.90;;;;;;5108306;28;20463;-70
2022/10/11 03:15:59;;;;;;;7.97;3.17;;;8.90;99.90;;;;;;5107459;28;20450;-70
2022/10/11 03:18:26;;;;;;;13.43;3.57;;;8.80;99.90;;;;;;5093845;28;20890;-70
2022/10/11 03:20:53;;;;;;;6.90;2.60;;;8.80;99.90;;;;;;5096680;28;20466;-71
2022/10/11 03:23:21;;;;;;;25.43;3.10;;;8.80;99.90;;;;;;5110718;28;20496;-70
2022/10/11 03:25:47;;;;;;;10.37;3.00;;;8.80;99.90;;;;;;5093682;28;20457;-70
2022/10/11 03:28:14;;;;;;;12.43;3.20;;;8.80;99.90;;;;;;5110856;28;20449;-71
2022/10/11 03:30:41;;;;;;;12.90;2.93;;;8.80;99.90;;;;;;5111727;28;20497;-70
2022/10/11 03:33:07;;;;;;;10.03;2.70;;;8.70;99.90;;;;;;5093671;28;20795;-70
2022/10/11 03:35:34;;;;;;;12.77;2.70;;;8.70;99.90;;;;;;5093616;28;20466;-70
2022/10/11 03:38:01;;;;;;;10.97;3.10;;;8.70;99.90;;;;;;5107604;28;20460;-70
2022/10/11 03:40:29;;;;;;;6.20;3.23;;;8.60;99.90;;;;;;5102592;28;20461;-70
2022/10/11 03:42:55;;;;;;;15.23;3.10;;;8.60;99.90;;;;;;5093134;28;20513;-70
2022/10/11 03:45:22;;;;;;;6.53;2.90;;;8.50;99.90;;;;;;5094419;28;20453;-71
2022/10/11 03:47:49;;;;;;;13.60;4.50;;;8.50;99.90;;;;;;5106807;28;20457;-70
2022/10/11 03:50:16;;;;;;;15.63;2.93;;;8.50;99.90;;;;;;5103885;28;20485;-70
2022/10/11 03:52:42;;;;;;;11.20;2.20;;;8.50;99.90;;;;;;5092882;28;20522;-70
2022/10/11 03:55:09;;;;;;;8.60;2.57;;;8.40;99.90;;;;;;5093287;28;20447;-70
2022/10/11 03:57:37;;;;;;;13.90;3.00;;;8.40;99.90;;;;;;5104983;28;20461;-70
2022/10/11 04:00:05;;;;;;;18.23;3.50;;;8.40;99.90;;;;;;5105695;27;20458;-70
2022/10/11 04:02:32;;;;;;;13.73;3.50;;;8.30;99.90;;;;;;5092348;28;20474;-70
2022/10/11 04:04:58;;;;;;;9.90;2.80;;;8.40;99.90;;;;;;5107008;28;20856;-70
2022/10/11 04:07:25;;;;;;;8.30;2.60;;;8.30;99.90;;;;;;5112628;27;20465;-70
2022/10/11 04:09:52;;;;;;;20.27;4.30;;;8.30;99.90;;;;;;5110765;28;20489;-70
2022/10/11 04:12:19;;;;;;;11.20;3.70;;;8.20;99.90;;;;;;5110914;28;21027;-69
2022/10/11 04:14:47;;;;;;;10.10;3.10;;;8.20;99.90;;;;;;5112584;28;20947;-69
2022/10/11 04:17:14;;;;;;;10.37;3.13;;;8.20;99.90;;;;;;5104141;28;20945;-69
2022/10/11 04:19:40;;;;;;;10.13;3.93;;;8.10;99.90;;;;;;5095830;28;20855;-70
2022/10/11 04:22:07;;;;;;;16.63;3.33;;;8.10;99.90;;;;;;5112839;28;20557;-71
2022/10/11 04:24:34;;;;;;;17.30;3.73;;;8.10;99.90;;;;;;5100959;28;20472;-71
2022/10/11 04:27:00;;;;;;;14.00;3.20;;;8.00;99.90;;;;;;5092959;28;20447;-70
2022/10/11 04:29:27;;;;;;;13.53;3.60;;;8.00;99.90;;;;;;5094104;28;20481;-70
2022/10/11 04:31:55;;;;;;;9.10;2.93;;;8.00;99.90;;;;;;5110330;28;20543;-70
2022/10/11 04:34:22;;;;;;;17.67;3.17;;;7.90;99.90;;;;;;5112645;28;20460;-70
2022/10/11 04:36:49;;;;;;;12.33;3.10;;;7.90;99.90;;;;;;5111856;28;20835;-70
2022/10/11 04:39:15;;;;;;;17.00;3.20;;;7.90;99.90;;;;;;5111887;28;20469;-71
2022/10/11 04:41:42;;;;;;;6.70;3.03;;;7.90;99.90;;;;;;5091766;28;20595;-70
2022/10/11 04:44:09;;;;;;;10.30;3.87;;;7.80;99.90;;;;;;5090596;28;20450;-70
2022/10/11 04:46:35;;;;;;;10.80;2.87;;;7.80;99.90;;;;;;5090346;28;20949;-70
2022/10/11 04:49:04;;;;;;;11.83;3.27;;;7.80;99.90;;;;;;5090265;28;20454;-71
2022/10/11 04:51:32;;;;;;;9.00;2.90;;;7.70;99.90;;;;;;5108456;28;20875;-69
2022/10/11 04:53:59;;;;;;;9.87;2.80;;;7.70;99.90;;;;;;5110569;28;20937;-69
2022/10/11 04:56:25;;;;;;;13.60;3.20;;;7.70;99.90;;;;;;5110516;28;20456;-69
2022/10/11 04:58:53;;;;;;;8.33;2.60;;;7.60;99.90;;;;;;5097816;28;20509;-69
2022/10/11 05:01:20;;;;;;;24.97;4.27;;;7.60;99.90;;;;;;5108038;28;20479;-69
2022/10/11 05:03:47;;;;;;;15.20;2.73;;;7.60;99.90;;;;;;5112290;28;20497;-69
2022/10/11 05:06:15;;;;;;;14.30;2.73;;;7.60;99.90;;;;;;5112096;28;20501;-69
2022/10/11 05:08:41;;;;;;;15.80;3.17;;;7.50;99.90;;;;;;5111047;28;20460;-69
2022/10/11 05:11:11;;;;;;;10.97;2.80;;;7.50;99.90;;;;;;5090088;28;21048;-69
2022/10/11 05:13:38;;;;;;;8.37;3.70;;;7.50;99.90;;;;;;5090613;28;20447;-69
2022/10/11 05:16:05;;;;;;;13.73;3.03;;;7.50;99.90;;;;;;5090436;28;20454;-69
2022/10/11 05:18:32;;;;;;;10.47;2.80;;;7.40;99.90;;;;;;5090288;28;20447;-69
2022/10/11 05:21:01;;;;;;;13.13;2.80;;;7.40;99.90;;;;;;5090735;28;20474;-69
2022/10/11 05:23:30;;;;;;;14.03;3.00;;;7.40;99.90;;;;;;5091008;28;20530;-69
2022/10/11 05:25:57;;;;;;;9.73;3.53;;;7.30;99.90;;;;;;5091189;28;20446;-69
2022/10/11 05:28:24;;;;;;;9.00;2.80;;;7.30;99.90;;;;;;5091007;28;20446;-69
2022/10/11 05:30:51;;;;;;;11.73;2.80;;;7.30;99.90;;;;;;5090844;28;20491;-70
2022/10/11 05:33:17;;;;;;;11.10;3.47;;;7.20;99.90;;;;;;5091804;28;20502;-70
2022/10/11 05:35:44;;;;;;;20.33;3.30;;;7.20;99.90;;;;;;5091625;28;20440;-69
2022/10/11 05:38:11;;;;;;;17.33;3.60;;;7.20;99.90;;;;;;5091554;28;20863;-69
2022/10/11 05:40:40;;;;;;;11.40;3.57;;;7.10;99.90;;;;;;5091016;28;20955;-70
2022/10/11 05:43:07;;;;;;;13.63;3.60;;;7.10;99.90;;;;;;5091837;28;20448;-70
2022/10/11 05:45:36;;;;;;;13.97;3.80;;;7.00;99.90;;;;;;5091590;28;20501;-70
2022/10/11 05:48:02;;;;;;;12.17;2.97;;;7.00;99.90;;;;;;5091569;28;20542;-70
2022/10/11 05:50:29;;;;;;;11.77;3.40;;;7.00;99.90;;;;;;5091613;28;20512;-69
2022/10/11 05:52:56;;;;;;;9.43;3.33;;;7.00;99.90;;;;;;5091271;28;20451;-69
2022/10/11 05:55:22;;;;;;;11.43;3.10;;;7.00;99.90;;;;;;5091252;28;20447;-69
2022/10/11 05:57:53;;;;;;;12.00;3.47;;;7.00;99.90;;;;;;5091191;28;20443;-70
2022/10/11 06:00:20;;;;;;;9.23;3.37;;;6.90;99.90;;;;;;5091367;28;20447;-69
2022/10/11 06:02:46;;;;;;;15.00;3.40;;;7.00;99.90;;;;;;5090994;28;20867;-68
2022/10/11 06:05:14;;;;;;;9.17;3.30;;;7.00;99.90;;;;;;5091331;28;20455;-69
2022/10/11 06:07:41;;;;;;;17.13;4.10;;;7.00;99.90;;;;;;5091226;28;20454;-69
2022/10/11 06:10:08;;;;;;;10.67;3.10;;;7.00;99.90;;;;;;5090843;28;20486;-68
2022/10/11 06:12:35;;;;;;;13.07;3.80;;;7.00;99.90;;;;;;5090993;28;20475;-69
2022/10/11 06:15:03;;;;;;;11.43;4.03;;;7.00;99.90;;;;;;5091337;28;20448;-69
2022/10/11 06:17:30;;;;;;;11.80;3.60;;;7.20;99.90;;;;;;5091244;28;20458;-69
2022/10/11 06:19:57;;;;;;;26.67;5.13;;;7.40;99.90;;;;;;5090488;28;20452;-68
2022/10/11 06:22:23;;;;;;;14.50;4.63;;;7.70;99.90;;;;;;5090803;28;20469;-69
2022/10/11 06:24:50;;;;;;;13.97;5.30;;;8.20;99.90;;;;;;5090956;28;20464;-68
2022/10/11 06:27:17;;;;;;;16.17;3.50;;;8.80;99.90;;;;;;5091178;28;20462;-69
2022/10/11 06:29:43;;;;;;;9.20;3.27;;;9.40;99.90;;;;;;5090766;28;20505;-69
2022/10/11 06:32:12;;;;;;;14.17;3.70;;;10.00;99.90;;;;;;5090828;28;20467;-69
2022/10/11 06:34:39;;;;;;;10.30;3.33;;;10.50;99.90;;;;;;5091074;28;21031;-69
2022/10/11 06:37:05;;;;;;;15.87;3.27;;;11.10;99.90;;;;;;5094041;28;20854;-69
2022/10/11 06:39:32;;;;;;;20.63;3.60;;;11.70;99.90;;;;;;5094851;28;20457;-70
2022/10/11 06:41:59;;;;;;;8.50;3.50;;;12.20;99.90;;;;;;5094380;28;20463;-69
2022/10/11 06:44:25;;;;;;;25.73;4.10;;;12.70;99.90;;;;;;5094432;28;20458;-69
2022/10/11 06:46:52;;;;;;;15.77;3.17;;;13.10;99.90;;;;;;5094511;28;20520;-70
2022/10/11 06:49:20;;;;;;;9.23;3.30;;;13.60;99.90;;;;;;5093642;28;20795;-69
2022/10/11 06:51:47;;;;;;;13.00;3.77;;;14.10;99.90;;;;;;5093174;28;21025;-70
2022/10/11 06:54:14;;;;;;;6.40;3.20;;;14.60;99.90;;;;;;5094634;28;20453;-69
2022/10/11 06:56:41;;;;;;;13.27;3.90;;;15.00;99.90;;;;;;5094496;28;20548;-69
2022/10/11 06:59:08;;;;;;;21.90;4.37;;;15.30;99.90;;;;;;5094334;28;20893;-72
2022/10/11 07:01:35;;;;;;;7.33;3.43;;;15.60;99.90;;;;;;5093849;28;20471;-72
2022/10/11 07:04:01;;;;;;;9.10;3.20;;;15.90;99.90;;;;;;5094173;28;20867;-72
2022/10/11 07:06:30;;;;;;;15.83;2.83;;;16.20;99.90;;;;;;5093649;28;20443;-72
2022/10/11 07:09:00;;;;;;;12.20;3.30;;;16.40;99.90;;;;;;5094079;28;20455;-72
2022/10/11 07:11:28;;;;;;;8.77;2.93;;;16.60;99.90;;;;;;5093244;28;20491;-72
2022/10/11 07:13:57;;;;;;;10.93;3.20;;;16.70;99.90;;;;;;5093376;28;20447;-72
2022/10/11 07:16:24;;;;;;;8.27;2.87;;;17.00;99.90;;;;;;5093563;28;20454;-72
2022/10/11 07:18:53;;;;;;;14.23;3.30;;;17.20;99.90;;;;;;5093708;28;20436;-72
2022/10/11 07:21:20;;;;;;;9.97;3.03;;;17.20;99.90;;;;;;5093607;28;21046;-72
2022/10/11 07:23:48;;;;;;;17.43;3.40;;;17.30;99.90;;;;;;5093940;28;20447;-72
2022/10/11 07:26:15;;;;;;;12.30;3.00;;;17.40;99.90;;;;;;5093928;28;20455;-72
2022/10/11 07:28:42;;;;;;;4.10;2.30;;;17.70;99.90;;;;;;5094094;28;20452;-72
2022/10/11 07:31:11;;;;;;;11.37;3.47;;;17.70;99.90;;;;;;5093239;28;20491;-72
2022/10/11 07:33:37;;;;;;;9.50;2.87;;;17.80;99.90;;;;;;5093429;28;20948;-72
2022/10/11 07:36:05;;;;;;;11.63;2.70;;;17.90;99.90;;;;;;5093852;28;20447;-72
2022/10/11 07:38:32;;;;;;;12.03;3.30;;;17.90;99.90;;;;;;5093165;28;20475;-72
2022/10/11 07:41:04;;;;;;;13.93;3.40;;;17.70;99.90;;;;;;5093338;28;20463;-72
2022/10/11 07:43:30;;;;;;;15.17;4.00;;;17.50;99.90;;;;;;5093333;28;20451;-72
2022/10/11 07:46:02;;;;;;;15.10;3.13;;;17.20;99.90;;;;;;5093172;28;20448;-72
2022/10/11 07:48:29;;;;;;;10.37;3.43;;;17.10;99.90;;;;;;5093408;28;20941;-72
2022/10/11 07:51:02;;;;;;;10.50;3.50;;;16.80;99.90;;;;;;5093162;28;20918;-72
2022/10/11 07:53:28;;;;;;;13.07;3.17;;;16.60;99.90;;;;;;5093002;28;20856;-72
2022/10/11 07:55:55;;;;;;;10.30;3.63;;;16.40;99.90;;;;;;5093342;28;20447;-72
2022/10/11 07:58:23;;;;;;;12.43;4.27;;;16.10;99.90;;;;;;5092985;28;20516;-72
2022/10/11 08:00:53;;;;;;;7.47;3.73;;;15.90;99.90;;;;;;5093073;28;20475;-72
2022/10/11 08:03:20;;;;;;;9.00;3.73;;;15.80;99.90;;;;;;5093169;28;20471;-72
2022/10/11 08:05:46;;;;;;;8.00;3.70;;;15.90;99.90;;;;;;5093117;28;20480;-72
2022/10/11 08:08:13;;;;;;;10.37;3.40;;;15.90;99.90;;;;;;5093424;28;20458;-72
2022/10/11 08:10:40;;;;;;;15.53;3.70;;;16.00;99.90;;;;;;5092623;28;20509;-72
2022/10/11 08:13:07;;;;;;;9.70;3.47;;;16.00;99.90;;;;;;5092531;28;20460;-72
2022/10/11 08:15:35;;;;;;;14.70;4.07;;;16.00;99.90;;;;;;5093105;28;20447;-72
2022/10/11 08:18:01;;;;;;;18.80;3.57;;;16.00;99.90;;;;;;5092629;28;20443;-72
2022/10/11 08:20:29;;;;;;;9.17;3.43;;;16.20;99.90;;;;;;5092379;28;20455;-72
2022/10/11 08:22:56;;;;;;;17.27;3.77;;;16.40;99.90;;;;;;5093275;28;20502;-72
2022/10/11 08:25:23;;;;;;;10.77;3.33;;;16.60;99.90;;;;;;5092644;28;20858;-72
2022/10/11 08:27:50;;;;;;;20.23;3.70;;;16.60;99.90;;;;;;5092740;28;20451;-73
2022/10/11 08:30:16;;;;;;;16.80;3.40;;;16.50;99.90;;;;;;5092587;28;20683;-73
2022/10/11 08:32:44;;;;;;;10.83;3.70;;;16.50;99.90;;;;;;5092356;28;20464;-72
2022/10/11 08:35:11;;;;;;;15.23;3.83;;;16.40;99.90;;;;;;5092571;28;20454;-72
2022/10/11 08:37:38;;;;;;;9.00;3.57;;;16.30;99.90;;;;;;5092353;28;20995;-72
2022/10/11 08:40:06;;;;;;;9.17;3.27;;;16.40;99.90;;;;;;5092220;28;20452;-72
2022/10/11 08:42:39;;;;;;;10.60;3.37;;;16.60;99.90;;;;;;5092329;28;20874;-72
2022/10/11 08:45:09;;;;;;;14.70;4.00;;;16.80;99.90;;;;;;5092486;28;20454;-73
2022/10/11 08:47:39;;;;;;;10.83;3.50;;;16.90;99.90;;;;;;5091748;28;20931;-73
2022/10/11 08:50:21;;;;;;;11.90;3.57;;;17.10;99.90;;;;;;5091536;28;20425;-72
2022/10/11 08:52:52;;;;;;;9.63;3.03;;;17.30;99.90;;;;;;5091480;28;20424;-72
2022/10/11 08:55:25;;;;;;;11.53;3.50;;;17.50;99.90;;;;;;5091981;28;20422;-73
2022/10/11 08:57:54;;;;;;;13.30;4.03;;;17.70;99.90;;;;;;5091699;28;20451;-72
2022/10/11 09:00:23;;;;;;;7.37;3.70;;;17.70;99.90;;;;;;5091800;28;20999;-73
2022/10/11 09:02:57;;;;;;;21.80;3.70;;;17.80;99.90;;;;;;5091768;28;20421;-72
2022/10/11 09:05:30;;;;;;;16.67;3.37;;;17.70;99.90;;;;;;5091994;28;20417;-72
2022/10/11 09:08:06;;;;;;;13.10;3.70;;;17.70;99.90;;;;;;5092185;28;20422;-73
2022/10/11 09:10:46;;;;;;;15.27;4.03;;;17.90;99.90;;;;;;5091649;28;20451;-73
2022/10/11 09:13:30;;;;;;;10.90;3.10;;;17.90;99.90;;;;;;5091875;28;20428;-73
2022/10/11 09:16:08;;;;;;;12.77;3.40;;;18.00;99.90;;;;;;5092050;28;20448;-72
2022/10/11 09:18:56;;;;;;;12.20;3.20;;;17.90;99.90;;;;;;5091725;28;20915;-72
2022/10/11 09:21:32;;;;;;;11.93;3.10;;;17.90;99.90;;;;;;5091282;28;20437;-73
2022/10/11 09:24:27;;;;;;;9.20;3.43;;;18.10;99.90;;;;;;5091579;28;20417;-73
2022/10/11 09:26:56;;;;;;;16.77;3.10;;;18.30;99.90;;;;;;5091716;28;20855;-73
2022/10/11 09:29:45;;;;;;;23.40;3.67;;;18.40;99.90;;;;;;5091702;28;20454;-73
2022/10/11 09:32:14;;;;;;;14.43;3.03;;;18.60;99.90;;;;;;5091102;28;20466;-73
2022/10/11 09:34:42;;;;;;;12.97;2.93;;;18.80;99.90;;;;;;5091854;28;20443;-72
2022/10/11 09:37:19;;;;;;;11.63;3.23;;;18.80;99.90;;;;;;5091454;28;20446;-73
2022/10/11 09:39:51;;;;;;;9.70;3.13;;;19.00;99.90;;;;;;5091149;28;20504;-73
2022/10/11 09:42:18;;;;;;;12.43;2.83;;;18.80;99.90;;;;;;5091295;28;20475;-73
2022/10/11 09:44:47;;;;;;;14.80;3.33;;;18.70;99.90;;;;;;5091304;28;20780;-72
2022/10/11 09:47:16;;;;;;;13.00;3.57;;;18.40;99.90;;;;;;5091498;28;20508;-72
2022/10/11 09:49:48;;;;;;;11.40;2.90;;;18.20;99.90;;;;;;5091474;28;20437;-72
2022/10/11 09:52:19;;;;;;;9.60;3.27;;;18.10;99.90;;;;;;5091043;28;20468;-72
2022/10/11 09:54:48;;;;;;;10.97;3.87;;;18.30;99.90;;;;;;5091327;28;20981;-73
2022/10/11 09:57:24;;;;;;;13.90;3.60;;;18.70;99.90;;;;;;5091414;28;20663;-73
2022/10/11 10:00:00;;;;;;;7.90;3.20;;;18.90;99.90;;;;;;5091371;28;20439;-73
2022/10/11 10:02:27;;;;;;;19.83;4.10;;;18.70;99.90;;;;;;5091266;28;20430;-73
2022/10/11 10:05:00;;;;;;;9.30;3.40;;;18.90;99.90;;;;;;5091357;28;20516;-73
2022/10/11 10:07:29;;;;;;;10.00;2.73;;;19.10;99.90;;;;;;5091299;28;20458;-72
2022/10/11 10:09:56;;;;;;;12.00;2.93;;;19.30;99.90;;;;;;5091121;28;20418;-72
2022/10/11 10:12:26;;;;;;;7.13;2.57;;;19.50;99.90;;;;;;5094839;28;21019;-73
2022/10/11 10:15:04;;;;;;;8.83;2.53;;;19.40;99.90;;;;;;5095214;28;20463;-73
2022/10/11 10:17:32;;;;;;;10.30;2.63;;;19.00;99.90;;;;;;5095339;28;20496;-73
2022/10/11 10:19:59;;;;;;;8.70;2.80;;;18.30;99.90;;;;;;5094746;28;20572;-72
2022/10/11 10:22:31;;;;;;;8.37;2.57;;;18.00;99.90;;;;;;5094743;28;20446;-73
2022/10/11 10:25:00;;;;;;;7.17;2.47;;;17.90;99.90;;;;;;5095158;28;20463;-72
2022/10/11 10:27:29;;;;;;;17.53;3.03;;;18.20;99.90;;;;;;5094983;28;20459;-73
2022/10/11 10:30:09;;;;;;;8.07;2.43;;;18.30;99.90;;;;;;5094497;28;20917;-72
2022/10/11 10:32:42;;;;;;;7.00;3.10;;;18.70;99.90;;;;;;5094855;28;20532;-72
2022/10/11 10:35:18;;;;;;;8.30;2.60;;;19.20;99.90;;;;;;5094695;28;20451;-72
2022/10/11 10:37:53;;;;;;;8.73;2.40;;;19.30;99.90;;;;;;5094514;28;20422;-72
2022/10/11 10:40:24;;;;;;;13.00;3.37;;;19.20;99.90;;;;;;5094559;28;20426;-72
2022/10/11 10:42:52;;;;;;;13.73;2.20;;;18.70;99.90;;;;;;5094564;28;20417;-72
2022/10/11 10:45:23;;;;;;;9.90;2.53;;;18.50;99.90;;;;;;5094625;28;20460;-73
2022/10/11 10:48:09;;;;;;;13.90;3.00;;;18.40;99.90;;;;;;5094771;28;20451;-72
2022/10/11 10:50:48;;;;;;;11.60;3.10;;;18.60;99.90;;;;;;5094189;28;20422;-73
2022/10/11 10:53:25;;;;;;;11.77;3.50;;;18.90;99.90;;;;;;5093813;28;20485;-73
2022/10/11 10:55:54;;;;;;;12.43;2.60;;;19.20;99.90;;;;;;5094383;28;20447;-73
2022/10/11 10:58:30;;;;;;;12.30;2.87;;;19.60;99.90;;;;;;5094537;28;20448;-73
2022/10/11 11:01:03;;;;;;;8.70;2.60;;;19.10;99.90;;;;;;5093846;28;20500;-73
2022/10/11 11:03:38;;;;;;;12.67;3.10;;;18.90;99.90;;;;;;5094275;28;20425;-72
2022/10/11 11:06:08;;;;;;;11.70;3.53;;;18.90;99.90;;;;;;5093909;28;20426;-73
2022/10/11 11:08:57;;;;;;;13.97;2.50;;;19.20;99.90;;;;;;5093079;28;20476;-73
2022/10/11 11:11:39;;;;;;;9.40;2.33;;;19.40;99.90;;;;;;5093555;28;20515;-73
2022/10/11 11:14:21;;;;;;;6.73;2.53;;;19.60;99.90;;;;;;5094112;28;20479;-73
2022/10/11 11:16:54;;;;;;;7.10;2.10;;;20.00;99.90;;;;;;5094310;28;20480;-73
2022/10/11 11:19:29;;;;;;;6.60;2.50;;;20.30;99.90;;;;;;5093829;28;20875;-73
2022/10/11 11:22:01;;;;;;;9.60;3.03;;;20.50;99.90;;;;;;5093093;28;20550;-73
2022/10/11 11:24:42;;;;;;;8.87;2.43;;;20.60;99.90;;;;;;5093546;28;20463;-73
2022/10/11 11:27:19;;;;;;;6.90;3.17;;;20.40;99.90;;;;;;5094084;28;20443;-73
2022/10/11 11:29:54;;;;;;;16.07;3.07;;;20.10;99.90;;;;;;5093743;28;20433;-73
2022/10/11 11:32:28;;;;;;;7.77;2.70;;;20.30;99.90;;;;;;5093247;28;20509;-73
2022/10/11 11:35:00;;;;;;;9.13;2.43;;;20.30;99.90;;;;;;5093537;28;20447;-73
2022/10/11 11:37:32;;;;;;;7.47;2.23;;;20.40;99.90;;;;;;5093383;28;20407;-73
2022/10/11 11:40:05;;;;;;;6.27;2.30;;;20.50;99.90;;;;;;5093457;28;20940;-73
2022/10/11 11:42:38;;;;;;;5.20;2.17;;;20.60;99.90;;;;;;5092582;28;20883;-73
2022/10/11 11:45:15;;;;;;;9.00;2.53;;;20.80;99.90;;;;;;5093416;28;20451;-73
2022/10/11 11:47:47;;;;;;;8.23;2.30;;;20.80;99.90;;;;;;5093253;28;20451;-73
2022/10/11 11:50:21;;;;;;;10.63;2.60;;;21.00;99.90;;;;;;5093257;28;20492;-73
2022/10/11 11:52:52;;;;;;;5.70;2.33;;;20.80;99.90;;;;;;5093280;28;20485;-73
2022/10/11 11:55:26;;;;;;;4.77;1.77;;;20.80;99.90;;;;;;5093211;28;20436;-73
2022/10/11 11:58:03;;;;;;;6.50;1.77;;;20.90;99.90;;;;;;5092404;28;20446;-73
2022/10/11 12:00:39;;;;;;;7.30;2.50;;;21.00;99.90;;;;;;5092875;28;20536;-73
2022/10/11 12:03:11;;;;;;;6.17;2.10;;;21.10;99.90;;;;;;5093228;28;20806;-73
2022/10/11 12:05:38;;;;;;;9.97;2.30;;;21.10;99.90;;;;;;5093146;28;20432;-73
2022/10/11 12:08:08;;;;;;;7.57;2.70;;;21.10;99.90;;;;;;5092765;28;20451;-73
2022/10/11 12:10:38;;;;;;;9.00;2.40;;;21.40;99.90;;;;;;5092108;28;20466;-73
2022/10/11 12:13:18;;;;;;;13.53;2.70;;;21.50;99.90;;;;;;5092620;28;20569;-73
2022/10/11 12:16:10;;;;;;;6.87;2.13;;;21.60;99.90;;;;;;5092595;28;20442;-73
2022/10/11 12:18:49;;;;;;;5.00;2.00;;;21.50;99.90;;;;;;5077951;28;20459;-73
2022/10/11 12:21:24;;;;;;;5.40;2.30;;;21.20;99.90;;;;;;5092535;28;20467;-73
2022/10/11 12:23:52;;;;;;;11.00;2.30;;;21.30;99.90;;;;;;5092734;28;20450;-73
2022/10/11 12:26:37;;;;;;;6.10;2.77;;;21.20;99.90;;;;;;5092600;28;20447;-73
2022/10/11 12:29:45;;;;;;;7.73;2.07;;;21.20;99.90;;;;;;5092638;28;20488;-73
2022/10/11 12:32:50;;;;;;;6.37;2.30;;;21.20;99.90;;;;;;5091387;28;20494;-73
2022/10/11 12:35:38;;;;;;;11.07;2.53;;;20.90;99.90;;;;;;5092180;28;20987;-73
2022/10/11 12:38:13;;;;;;;9.33;2.47;;;20.60;99.90;;;;;;5092048;28;20451;-73
2022/10/11 12:40:44;;;;;;;5.37;2.00;;;20.70;99.90;;;;;;5091877;28;20790;-73
2022/10/11 12:43:26;;;;;;;3.90;1.90;;;20.90;99.90;;;;;;5092460;28;20447;-73
2022/10/11 12:45:52;;;;;;;6.73;2.10;;;21.20;99.90;;;;;;5092001;28;20443;-73
2022/10/11 12:48:37;;;;;;;7.30;2.27;;;21.50;99.90;;;;;;5091876;28;20525;-73
2022/10/11 12:51:29;;;;;;;9.37;2.03;;;21.70;99.90;;;;;;5092023;28;20497;-73
2022/10/11 12:54:14;;;;;;;6.53;2.40;;;21.70;99.90;;;;;;5092237;28;20480;-73
2022/10/11 12:56:49;;;;;;;9.13;2.40;;;21.60;99.90;;;;;;5092133;28;20451;-73
2022/10/11 12:59:19;;;;;;;13.40;2.40;;;21.50;99.90;;;;;;5092344;28;20454;-73
2022/10/11 13:01:51;;;;;;;11.00;2.60;;;21.30;99.90;;;;;;5091640;28;20976;-73
2022/10/11 13:04:21;;;;;;;8.03;2.07;;;21.60;99.90;;;;;;5091739;28;20509;-73